Time;durP1;ratioP1;P1;durP2;ratioP2;P2;SDS_P1;SDS_P2;PMS_P1;PMS_P2;Temp;Humidity;BMP_temperature;BMP_pressure;BME280_temperature;BME280_humidity;BME280_pressure;Samples;Min_cycle;Max_cycle;Signal;HPM_P1;HPM_P2
2022/05/24 00:00:54;;;;;;;31.40;28.00;;;;;;;-145.45;100.00;62759.84;5298351;27;20073;-84
2022/05/24 00:03:25;;;;;;;29.92;26.80;;;;;;;-145.45;100.00;62759.84;5304427;28;20024;-93
2022/05/24 00:05:59;;;;;;;31.17;27.20;;;;;;;-145.45;100.00;62759.84;5313483;27;20400;-84
2022/05/24 00:08:31;;;;;;;26.70;23.67;;;;;;;-145.45;100.00;62759.84;5328164;27;20639;-83
2022/05/24 00:11:02;;;;;;;30.33;25.52;;;;;;;-145.45;100.00;62759.84;5319994;27;20416;-84
2022/05/24 00:13:33;;;;;;;31.48;26.30;;;;;;;-145.45;100.00;62759.84;5343598;27;20020;-84
2022/05/24 00:16:05;;;;;;;34.03;25.30;;;;;;;-145.45;100.00;62759.84;5365560;27;20007;-84
2022/05/24 00:18:36;;;;;;;30.45;23.85;;;;;;;-145.45;100.00;62759.84;5352036;27;20039;-83
2022/05/24 00:21:07;;;;;;;31.48;25.48;;;;;;;-145.45;100.00;62759.84;5339400;27;20028;-83
2022/05/24 00:23:39;;;;;;;31.67;25.52;;;;;;;-145.45;100.00;62759.84;5341822;27;20560;-83
2022/05/24 00:26:19;;;;;;;33.35;25.30;;;;;;;-145.45;100.00;62759.84;5359723;27;20008;-83
2022/05/24 00:28:50;;;;;;;31.48;24.98;;;;;;;-145.45;100.00;62759.84;5352826;27;20032;-84
2022/05/24 00:31:22;;;;;;;34.17;27.13;;;;;;;-145.45;100.00;62759.84;5351972;27;20039;-83
2022/05/24 00:33:53;;;;;;;34.75;27.10;;;;;;;-145.45;100.00;62759.84;5347200;27;20408;-84
2022/05/24 00:36:25;;;;;;;33.95;25.08;;;;;;;-145.45;100.00;62759.84;5334120;27;20074;-84
2022/05/24 00:38:56;;;;;;;29.60;24.27;;;;;;;-145.45;100.00;62759.84;5338494;27;21666;-84
2022/05/24 00:41:32;;;;;;;29.75;25.02;;;;;;;-145.45;100.00;62759.84;5337531;27;20165;-84
2022/05/24 00:44:12;;;;;;;29.30;22.10;;;;;;;-145.45;100.00;62759.84;5336512;27;20118;-82
2022/05/24 00:47:25;;;;;;;33.67;22.70;;;;;;;-145.45;100.00;62759.84;5335007;27;29070;-82
2022/05/24 00:50:01;;;;;;;26.45;20.63;;;;;;;-145.45;100.00;62759.84;5330218;27;20046;-83
2022/05/24 00:52:53;;;;;;;24.88;18.65;;;;;;;-145.45;100.00;62759.84;5339739;27;20089;-84
2022/05/24 00:55:26;;;;;;;22.77;17.17;;;;;;;-145.45;100.00;62759.84;5333406;27;20020;-83
2022/05/24 00:58:07;;;;;;;24.83;17.63;;;;;;;-145.45;100.00;62759.84;5339111;27;20043;-83
2022/05/24 01:00:39;;;;;;;26.88;17.05;;;;;;;-145.45;100.00;62759.84;5327975;27;20032;-83
2022/05/24 01:03:11;;;;;;;22.98;17.60;;;;;;;-145.45;100.00;62759.84;5332120;27;20502;-83
2022/05/24 01:05:43;;;;;;;21.67;17.92;;;;;;;-145.45;100.00;62759.84;5335130;27;20165;-83
2022/05/24 01:08:14;;;;;;;24.10;17.35;;;;;;;-145.45;100.00;62759.84;5338957;27;20051;-84
2022/05/24 01:10:49;;;;;;;27.63;17.58;;;;;;;-145.45;100.00;62759.84;5326190;27;20052;-83
2022/05/24 01:13:26;;;;;;;23.63;16.90;;;;;;;-145.45;100.00;62759.84;5294498;28;20081;-83
2022/05/24 01:15:58;;;;;;;21.63;15.88;;;;;;;-145.45;100.00;62759.84;5302582;27;20021;-83
2022/05/24 01:18:29;;;;;;;24.23;16.35;;;;;;;-145.45;100.00;62759.84;5319737;27;20031;-83
2022/05/24 01:21:07;;;;;;;28.30;14.27;;;;;;;-145.45;100.00;62759.84;5322100;27;20028;-83
2022/05/24 01:24:08;;;;;;;21.35;13.23;;;;;;;-145.45;100.00;62759.84;5316408;27;20499;-83
2022/05/24 01:26:49;;;;;;;26.70;14.25;;;;;;;-145.45;100.00;62759.84;5297432;27;20043;-83
2022/05/24 01:29:23;;;;;;;19.50;12.32;;;;;;;-145.45;100.00;62759.84;5314620;27;20044;-83
2022/05/24 01:37:34;;;;;;;21.80;13.95;;;;;;;-145.45;100.00;62759.84;5314783;27;20028;-83
2022/05/24 01:40:06;;;;;;;20.25;13.13;;;;;;;-145.45;100.00;62759.84;5291767;27;20047;-83
2022/05/24 01:42:37;;;;;;;23.58;12.00;;;;;;;-145.45;100.00;62759.84;5316348;27;20503;-83
2022/05/24 01:45:18;;;;;;;16.83;12.43;;;;;;;-145.45;100.00;62759.84;5314486;27;20097;-83
2022/05/24 01:47:55;;;;;;;21.65;11.95;;;;;;;-145.45;100.00;62759.84;5296817;28;20500;-83
2022/05/24 01:50:28;;;;;;;16.35;11.27;;;;;;;-145.45;100.00;62759.84;5315232;27;20476;-83
2022/05/24 01:53:06;;;;;;;18.63;10.48;;;;;;;-145.45;100.00;62759.84;5316024;27;20020;-83
2022/05/24 01:55:46;;;;;;;15.95;9.55;;;;;;;-145.45;100.00;62759.84;5312963;27;20028;-83
2022/05/24 01:58:20;;;;;;;17.85;10.32;;;;;;;-145.45;100.00;62759.84;5313249;27;20044;-83
2022/05/24 02:01:11;;;;;;;13.48;9.02;;;;;;;-145.45;100.00;62759.84;5315226;27;20035;-83
2022/05/24 02:03:43;;;;;;;20.73;8.65;;;;;;;-145.45;100.00;62759.84;5316263;27;20029;-83
2022/05/24 02:06:24;;;;;;;16.95;8.82;;;;;;;-145.45;100.00;62759.84;5312882;27;20041;-83
2022/05/24 02:08:56;;;;;;;12.27;7.85;;;;;;;-145.45;100.00;62759.84;5298013;27;20116;-83
2022/05/24 02:11:30;;;;;;;18.17;8.63;;;;;;;-145.45;100.00;62759.84;5316798;27;20575;-83
2022/05/24 02:14:11;;;;;;;13.73;7.57;;;;;;;-145.45;100.00;62759.84;5296060;27;20043;-83
2022/05/24 02:16:55;;;;;;;12.93;7.25;;;;;;;-145.45;100.00;62759.84;5318151;27;20456;-83
2022/05/24 02:19:29;;;;;;;11.57;6.85;;;;;;;-145.45;100.00;62759.84;5318966;27;20051;-83
2022/05/24 02:22:06;;;;;;;15.00;6.15;;;;;;;-145.45;100.00;62759.84;5317868;27;20551;-83
2022/05/24 02:24:37;;;;;;;15.40;5.88;;;;;;;-145.45;100.00;62759.84;5315281;27;20042;-83
2022/05/24 02:27:09;;;;;;;10.32;5.93;;;;;;;-145.45;100.00;62759.84;5316251;27;20441;-83
2022/05/24 02:29:40;;;;;;;13.30;5.38;;;;;;;-145.45;100.00;62759.84;5319501;27;20074;-83
2022/05/24 02:32:11;;;;;;;11.90;5.30;;;;;;;-145.45;100.00;62759.84;5297978;27;20040;-83
2022/05/24 02:34:42;;;;;;;12.25;5.45;;;;;;;-145.45;100.00;62759.84;5319025;27;20108;-83
2022/05/24 02:37:14;;;;;;;13.48;4.90;;;;;;;-145.45;100.00;62759.84;5292716;27;20032;-83
2022/05/24 02:42:35;;;;;;;10.50;4.55;;;;;;;-145.45;100.00;62759.84;5318791;27;20036;-83
2022/05/24 02:45:07;;;;;;;12.07;4.32;;;;;;;-145.45;100.00;62759.84;5317339;27;20031;-83
2022/05/24 02:47:38;;;;;;;8.98;4.25;;;;;;;-145.45;100.00;62759.84;5313909;27;20024;-83
2022/05/24 02:50:11;;;;;;;13.05;4.22;;;;;;;-145.45;100.00;62759.84;5316361;27;20146;-83
2022/05/24 02:52:42;;;;;;;9.98;3.72;;;;;;;-145.45;100.00;62759.84;5319778;27;20144;-83
2022/05/24 02:55:14;;;;;;;9.52;4.25;;;;;;;-145.45;100.00;62759.84;5300241;27;20034;-83
2022/05/24 02:57:48;;;;;;;8.93;3.83;;;;;;;-145.45;100.00;62759.84;5317718;27;20400;-83
2022/05/24 03:00:22;;;;;;;9.75;4.30;;;;;;;-145.45;100.00;62759.84;5312986;27;20028;-83
2022/05/24 03:02:54;;;;;;;11.48;4.30;;;;;;;-145.45;100.00;62759.84;5299357;27;20032;-83
2022/05/24 03:05:26;;;;;;;9.52;3.38;;;;;;;-145.45;100.00;62759.84;5317844;27;20017;-83
2022/05/24 03:10:48;;;;;;;10.70;4.38;;;;;;;-145.45;100.00;62759.84;5313395;27;20469;-83
2022/05/24 03:16:12;;;;;;;12.52;4.30;;;;;;;-145.45;100.00;62759.84;5313104;27;20115;-83
2022/05/24 03:18:43;;;;;;;8.93;4.03;;;;;;;-145.45;100.00;62759.84;5314235;27;21608;-83
2022/05/24 03:21:15;;;;;;;10.40;5.22;;;;;;;-145.45;100.00;62759.84;5313616;27;20028;-83
2022/05/24 03:23:46;;;;;;;12.80;4.55;;;;;;;-145.45;100.00;62759.84;5316451;27;20421;-83
2022/05/24 03:26:17;;;;;;;19.60;5.40;;;;;;;-145.45;100.00;62759.84;5319151;27;20040;-83
2022/05/24 03:28:49;;;;;;;12.02;5.63;;;;;;;-145.45;100.00;62759.84;5313509;27;20032;-83
2022/05/24 03:31:20;;;;;;;8.18;4.20;;;;;;;-145.45;100.00;62759.84;5318197;27;20432;-83
2022/05/24 03:33:52;;;;;;;11.00;4.65;;;;;;;-145.45;100.00;62759.84;5324214;27;20086;-83
2022/05/24 03:36:23;;;;;;;10.75;4.90;;;;;;;-145.45;100.00;62759.84;5319974;27;20020;-83
2022/05/24 03:38:54;;;;;;;8.88;5.00;;;;;;;-145.45;100.00;62759.84;5315937;27;20173;-84
2022/05/24 03:41:26;;;;;;;11.70;6.47;;;;;;;-145.45;100.00;62759.84;5318337;27;20365;-83
2022/05/24 03:43:57;;;;;;;14.85;6.20;;;;;;;-145.45;100.00;62759.84;5316082;27;20028;-83
2022/05/24 03:46:28;;;;;;;14.40;6.18;;;;;;;-145.45;100.00;62759.84;5320417;27;20863;-83
2022/05/24 03:48:59;;;;;;;12.30;6.07;;;;;;;-145.45;100.00;62759.84;5318383;27;21004;-83
2022/05/24 03:51:31;;;;;;;12.68;6.65;;;;;;;-145.45;100.00;62759.84;5320906;27;20028;-83
2022/05/24 03:54:02;;;;;;;14.95;6.93;;;;;;;-145.45;100.00;62759.84;5323660;27;20118;-83
2022/05/24 03:56:35;;;;;;;11.80;6.40;;;;;;;-145.45;100.00;62759.84;5318003;27;20023;-83
2022/05/24 03:59:06;;;;;;;11.50;5.68;;;;;;;-145.45;100.00;62759.84;5321060;27;20160;-83
2022/05/24 04:01:37;;;;;;;11.88;5.78;;;;;;;-145.45;100.00;62759.84;5318424;27;20073;-83
2022/05/24 04:04:09;;;;;;;10.75;5.68;;;;;;;-145.45;100.00;62759.84;5318629;27;20084;-83
2022/05/24 04:06:41;;;;;;;14.50;5.90;;;;;;;-145.45;100.00;62759.84;5318654;27;20028;-83
2022/05/24 04:09:12;;;;;;;9.30;4.88;;;;;;;-145.45;100.00;62759.84;5318024;27;20626;-83
2022/05/24 04:11:43;;;;;;;16.55;5.50;;;;;;;-145.45;100.00;62759.84;5317127;27;20035;-83
2022/05/24 04:14:19;;;;;;;13.25;5.35;;;;;;;-145.45;100.00;62759.84;5319902;27;20171;-82
2022/05/24 04:16:52;;;;;;;11.73;5.63;;;;;;;-145.45;100.00;62759.84;5312905;27;40993;-83
2022/05/24 04:19:24;;;;;;;15.30;5.53;;;;;;;-145.45;100.00;62759.84;5316260;27;20043;-83
2022/05/24 04:21:55;;;;;;;10.10;4.75;;;;;;;-145.45;100.00;62759.84;5317517;27;20430;-83
2022/05/24 04:24:26;;;;;;;11.95;4.57;;;;;;;-145.45;100.00;62759.84;5316800;27;20036;-83
2022/05/24 04:26:58;;;;;;;10.43;4.43;;;;;;;-145.45;100.00;62759.84;5318440;27;20028;-83
2022/05/24 04:29:29;;;;;;;13.18;4.60;;;;;;;-145.45;100.00;62759.84;5318648;27;20024;-83
2022/05/24 04:32:00;;;;;;;9.75;4.07;;;;;;;-145.45;100.00;62759.84;5295728;28;20630;-83
2022/05/24 04:34:32;;;;;;;13.73;5.10;;;;;;;-145.45;100.00;62759.84;5318251;27;20464;-83
2022/05/24 04:37:09;;;;;;;10.98;4.43;;;;;;;-145.45;100.00;62759.84;5318135;27;20050;-83
2022/05/24 04:39:41;;;;;;;9.52;3.80;;;;;;;-145.45;100.00;62759.84;5294264;27;20027;-83
2022/05/24 04:42:24;;;;;;;16.38;4.65;;;;;;;-145.45;100.00;62759.84;5315415;27;20021;-83
2022/05/24 04:44:59;;;;;;;10.63;4.88;;;;;;;-145.45;100.00;62759.84;5294192;27;20020;-83
2022/05/24 04:47:31;;;;;;;11.07;4.68;;;;;;;-145.45;100.00;62759.84;5317412;27;20032;-83
2022/05/24 04:50:09;;;;;;;11.82;4.38;;;;;;;-145.45;100.00;62759.84;5299755;27;20349;-83
2022/05/24 04:52:41;;;;;;;10.73;4.22;;;;;;;-145.45;100.00;62759.84;5320460;27;20119;-83
2022/05/24 04:55:15;;;;;;;10.70;3.80;;;;;;;-145.45;100.00;62759.84;5314988;27;20028;-84
2022/05/24 04:57:46;;;;;;;10.73;4.25;;;;;;;-145.45;100.00;62759.84;5290586;27;20103;-84
2022/05/24 05:00:20;;;;;;;11.20;4.30;;;;;;;-145.45;100.00;62759.84;5315799;27;21289;-83
2022/05/24 05:02:52;;;;;;;10.88;4.25;;;;;;;-145.45;100.00;62759.84;5314064;27;20172;-84
2022/05/24 05:05:23;;;;;;;8.90;3.97;;;;;;;-145.45;100.00;62759.84;5312547;27;20040;-84
2022/05/24 05:07:55;;;;;;;13.48;3.92;;;;;;;-145.45;100.00;62759.84;5297065;27;20500;-83
2022/05/24 05:10:26;;;;;;;8.65;3.42;;;;;;;-145.45;100.00;62759.84;5317193;27;20082;-84
2022/05/24 05:12:57;;;;;;;10.73;3.15;;;;;;;-145.45;100.00;62759.84;5318683;27;20123;-84
2022/05/24 05:15:29;;;;;;;11.20;3.70;;;;;;;-145.45;100.00;62759.84;5318364;27;20173;-84
2022/05/24 05:18:09;;;;;;;10.80;3.60;;;;;;;-145.45;100.00;62759.84;5318031;27;20024;-84
2022/05/24 05:20:42;;;;;;;9.07;3.78;;;;;;;-145.45;100.00;62759.84;5318132;27;20051;-84
2022/05/24 05:23:16;;;;;;;10.70;3.50;;;;;;;-145.45;100.00;62759.84;5321524;27;20086;-84
2022/05/24 05:25:47;;;;;;;9.00;4.07;;;;;;;-145.45;100.00;62759.84;5316473;27;20473;-84
2022/05/24 05:28:21;;;;;;;9.77;3.75;;;;;;;-145.45;100.00;62759.84;5317954;27;20104;-84
2022/05/24 05:33:43;;;;;;;10.73;4.00;;;;;;;-145.45;100.00;62759.84;5321790;27;20461;-84
2022/05/24 05:36:16;;;;;;;7.55;3.33;;;;;;;-145.45;100.00;62759.84;5320705;27;20159;-84
2022/05/24 05:38:48;;;;;;;10.95;3.17;;;;;;;-145.45;100.00;62759.84;5320934;27;20484;-84
2022/05/24 05:41:22;;;;;;;11.43;3.50;;;;;;;-145.45;100.00;62759.84;5317843;27;20034;-84
2022/05/24 05:43:54;;;;;;;8.13;3.10;;;;;;;-145.45;100.00;62759.84;5319857;27;20031;-83
2022/05/24 05:46:28;;;;;;;10.35;3.45;;;;;;;-145.45;100.00;62759.84;5318388;27;20504;-84
2022/05/24 05:49:00;;;;;;;10.25;3.55;;;;;;;-145.45;100.00;62759.84;5319512;27;20475;-84
2022/05/24 05:51:34;;;;;;;10.98;3.53;;;;;;;-145.45;100.00;62759.84;5320482;27;20067;-84
2022/05/24 05:54:05;;;;;;;11.20;3.53;;;;;;;-145.45;100.00;62759.84;5316182;27;22090;-84
2022/05/24 05:56:37;;;;;;;12.00;4.13;;;;;;;-145.45;100.00;62759.84;5319518;27;20051;-84
2022/05/24 05:59:08;;;;;;;10.48;3.22;;;;;;;-145.45;100.00;62759.84;5321897;27;20077;-84
2022/05/24 06:01:39;;;;;;;11.52;3.35;;;;;;;-145.45;100.00;62759.84;5319948;27;20027;-84
2022/05/24 06:04:11;;;;;;;7.07;2.63;;;;;;;-145.45;100.00;62759.84;5318095;27;20040;-84
2022/05/24 06:06:46;;;;;;;13.02;3.80;;;;;;;-145.45;100.00;62759.84;5298822;28;20035;-84
2022/05/24 06:09:17;;;;;;;6.63;2.90;;;;;;;-145.45;100.00;62759.84;5297936;28;20012;-84
2022/05/24 06:11:49;;;;;;;12.13;2.97;;;;;;;-145.45;100.00;62759.84;5338285;27;20039;-84
2022/05/24 06:14:20;;;;;;;12.63;3.08;;;;;;;-145.45;100.00;62759.84;5345907;27;20024;-84
2022/05/24 06:16:51;;;;;;;7.60;2.65;;;;;;;-145.45;100.00;62759.84;5347028;27;20028;-84
2022/05/24 06:19:22;;;;;;;13.57;3.13;;;;;;;-145.45;100.00;62759.84;5348140;27;20020;-85
2022/05/24 06:21:54;;;;;;;8.65;2.60;;;;;;;-145.45;100.00;62759.84;5347608;27;20027;-85
2022/05/24 06:24:25;;;;;;;10.77;2.67;;;;;;;-145.45;100.00;62759.84;5341039;27;20384;-85
2022/05/24 06:26:56;;;;;;;6.45;2.17;;;;;;;-145.45;100.00;62759.84;5330010;27;20024;-85
2022/05/24 06:29:32;;;;;;;9.75;2.83;;;;;;;-145.45;100.00;62759.84;5326040;28;20042;-84
2022/05/24 06:32:04;;;;;;;10.02;2.30;;;;;;;-145.45;100.00;62759.84;5325056;27;20020;-84
2022/05/24 06:34:38;;;;;;;5.80;2.40;;;;;;;-145.45;100.00;62759.84;5325932;28;20024;-85
2022/05/24 06:37:11;;;;;;;6.93;1.73;;;;;;;-145.45;100.00;62759.84;5340752;27;20027;-85
2022/05/24 06:39:42;;;;;;;7.40;2.10;;;;;;;-145.45;100.00;62759.84;5347216;27;20020;-85
2022/05/24 06:42:14;;;;;;;5.38;1.75;;;;;;;-145.45;100.00;62759.84;5346289;27;20028;-85
2022/05/24 06:44:46;;;;;;;9.43;2.20;;;;;;;-145.45;100.00;62759.84;5347400;27;20125;-85
2022/05/24 06:47:18;;;;;;;3.45;1.42;;;;;;;-145.45;100.00;62759.84;5346709;27;20085;-85
2022/05/24 06:49:49;;;;;;;6.32;2.00;;;;;;;-145.45;100.00;62759.84;5338102;27;20028;-82
2022/05/24 06:52:22;;;;;;;7.05;1.88;;;;;;;-145.45;100.00;62759.84;5330842;27;20447;-82
2022/05/24 06:54:54;;;;;;;4.88;1.60;;;;;;;-145.45;100.00;62759.84;5337647;27;20085;-82
2022/05/24 06:57:28;;;;;;;8.20;1.73;;;;;;;-145.45;100.00;62759.84;5345567;27;20027;-82
2022/05/24 07:02:59;;;;;;;6.68;2.10;;;;;;;-145.45;100.00;62759.84;5346446;27;20027;-82
2022/05/24 07:05:31;;;;;;;4.97;1.70;;;;;;;-145.45;100.00;62759.84;5345979;27;20039;-85
2022/05/24 07:08:04;;;;;;;6.13;1.60;;;;;;;-145.45;100.00;62759.84;5346206;27;20039;-84
2022/05/24 07:10:37;;;;;;;4.78;1.73;;;;;;;-145.45;100.00;62759.84;5336810;27;20060;-84
2022/05/24 07:13:11;;;;;;;3.30;1.50;;;;;;;-145.45;100.00;62759.84;5325092;28;20020;-84
2022/05/24 07:15:42;;;;;;;8.70;2.85;;;;;;;-145.45;100.00;62759.84;5292248;28;20121;-84
2022/05/24 07:18:14;;;;;;;5.78;1.88;;;;;;;-145.45;100.00;62759.84;5303821;28;20074;-84
2022/05/24 07:20:46;;;;;;;3.95;1.33;;;;;;;-145.45;100.00;62759.84;5303667;28;20515;-85
2022/05/24 07:23:21;;;;;;;5.18;1.88;;;;;;;-145.45;100.00;62759.84;5302269;28;20009;-84
2022/05/24 07:25:54;;;;;;;5.40;1.85;;;;;;;-145.45;100.00;62759.84;5304316;28;20029;-85
2022/05/24 07:28:25;;;;;;;8.35;1.75;;;;;;;-145.45;100.00;62759.84;5303579;28;20024;-85
2022/05/24 07:30:57;;;;;;;4.00;1.17;;;;;;;-145.45;100.00;62759.84;5303167;28;20021;-85
2022/05/24 07:33:28;;;;;;;5.47;1.80;;;;;;;-145.45;100.00;62759.84;5303314;28;20017;-84
2022/05/24 07:35:59;;;;;;;5.63;1.60;;;;;;;-145.45;100.00;62759.84;5284954;28;20414;-84
2022/05/24 07:38:31;;;;;;;7.75;1.90;;;;;;;-145.45;100.00;62759.84;5302585;28;20036;-85
2022/05/24 07:46:42;;;;;;;4.82;1.58;;;;;;;-145.45;100.00;62759.84;5324015;28;20341;-85
2022/05/24 07:49:13;;;;;;;6.53;1.45;;;;;;;-145.45;100.00;62759.84;5324054;28;20043;-84
2022/05/24 07:51:44;;;;;;;5.03;1.58;;;;;;;-145.45;100.00;62759.84;5305640;28;20077;-85
2022/05/24 07:54:16;;;;;;;5.85;1.60;;;;;;;-145.45;100.00;62759.84;5322999;28;20038;-84
2022/05/24 07:56:47;;;;;;;7.28;1.92;;;;;;;-145.45;100.00;62759.84;5322562;28;20024;-84
2022/05/24 07:59:18;;;;;;;4.75;1.77;;;;;;;-145.45;100.00;62759.84;5306245;28;20033;-84
2022/05/24 08:01:50;;;;;;;7.28;2.33;;;;;;;-145.45;100.00;62759.84;5324221;28;20032;-84
2022/05/24 08:04:21;;;;;;;4.80;1.80;;;;;;;-145.45;100.00;62759.84;5302028;28;20063;-84
2022/05/24 08:06:54;;;;;;;7.07;1.80;;;;;;;-145.45;100.00;62759.84;5302327;28;28704;-84
2022/05/24 08:09:30;;;;;;;3.38;1.50;;;;;;;-145.45;100.00;62759.84;5306251;28;20043;-84
2022/05/24 08:12:02;;;;;;;2.67;1.40;;;;;;;-145.45;100.00;62759.84;5323463;27;20052;-84
2022/05/24 08:14:34;;;;;;;4.50;1.73;;;;;;;-145.45;100.00;62759.84;5324237;28;20027;-84
2022/05/24 08:17:05;;;;;;;7.25;2.40;;;;;;;-145.45;100.00;62759.84;5304837;28;20392;-84
2022/05/24 08:19:37;;;;;;;4.38;2.20;;;;;;;-145.45;100.00;62759.84;5308450;28;20048;-85
2022/05/24 08:22:08;;;;;;;3.95;2.22;;;;;;;-145.45;100.00;62759.84;5308720;28;20585;-84
2022/05/24 08:24:39;;;;;;;3.90;2.10;;;;;;;-145.45;100.00;62759.84;5326874;28;20490;-85
2022/05/24 08:27:14;;;;;;;5.57;2.63;;;;;;;-145.45;100.00;62759.84;5327134;28;20036;-85
2022/05/24 08:29:45;;;;;;;5.38;2.33;;;;;;;-145.45;100.00;62759.84;5327311;28;20019;-85
2022/05/24 08:32:16;;;;;;;4.57;2.33;;;;;;;-145.45;100.00;62759.84;5326929;28;20069;-85
2022/05/24 08:34:48;;;;;;;6.05;2.30;;;;;;;-145.45;100.00;62759.84;5327723;28;20034;-85
2022/05/24 08:37:20;;;;;;;5.10;1.88;;;;;;;-145.45;100.00;62759.84;5309914;28;20032;-85
2022/05/24 08:39:51;;;;;;;5.88;1.98;;;;;;;-145.45;100.00;62759.84;5305638;28;20048;-84
2022/05/24 08:42:35;;;;;;;6.35;2.10;;;;;;;-145.45;100.00;62759.84;5320134;28;20384;-85
2022/05/24 08:48:26;;;;;;;3.80;1.73;;;;;;;-145.45;100.00;62759.84;5327041;28;20047;-84
2022/05/24 08:51:06;;;;;;;4.13;1.80;;;;;;;-145.45;100.00;62759.84;5326444;28;20054;-84
2022/05/24 08:53:46;;;;;;;2.63;1.50;;;;;;;-145.45;100.00;62759.84;5326320;28;20100;-84
2022/05/24 08:56:37;;;;;;;6.07;1.73;;;;;;;-145.45;100.00;62759.84;5309936;28;20031;-85
2022/05/24 08:59:21;;;;;;;6.75;2.08;;;;;;;-145.45;100.00;62759.84;5307746;28;20105;-85
2022/05/24 09:01:53;;;;;;;2.95;1.30;;;;;;;-145.45;100.00;62759.84;5325923;28;20020;-84
2022/05/24 09:04:25;;;;;;;4.20;1.60;;;;;;;-145.45;100.00;62759.84;5326887;28;20023;-85
2022/05/24 09:07:07;;;;;;;5.15;1.98;;;;;;;-145.45;100.00;62759.84;5326882;28;20385;-84
2022/05/24 09:10:02;;;;;;;5.65;1.55;;;;;;;-145.45;100.00;62759.84;5324570;28;20040;-85
2022/05/24 09:12:48;;;;;;;5.13;1.40;;;;;;;-145.45;100.00;62759.84;5326924;28;20055;-84
2022/05/24 09:16:08;;;;;;;2.97;1.67;;;;;;;-145.45;100.00;62759.84;5319878;28;20142;-84
2022/05/24 09:18:51;;;;;;;7.75;3.15;;;;;;;-145.45;100.00;62759.84;5295092;28;20127;-85
2022/05/24 09:21:26;;;;;;;3.42;2.20;;;;;;;-145.45;100.00;62759.84;5305146;28;20029;-84
2022/05/24 09:24:16;;;;;;;2.17;1.92;;;;;;;-145.45;100.00;62759.84;5308431;28;20016;-85
2022/05/24 09:27:13;;;;;;;5.35;2.22;;;;;;;-145.45;100.00;62759.84;5326253;28;20024;-85
2022/05/24 09:30:20;;;;;;;4.32;2.30;;;;;;;-145.45;100.00;62759.84;5324625;27;20483;-85
2022/05/24 09:32:51;;;;;;;5.22;3.00;;;;;;;-145.45;100.00;62759.84;5324537;28;20452;-84
2022/05/24 09:35:26;;;;;;;3.92;2.58;;;;;;;-145.45;100.00;62759.84;5324920;28;20023;-84
2022/05/24 09:38:01;;;;;;;5.80;2.85;;;;;;;-145.45;100.00;62759.84;5326123;27;20028;-84
2022/05/24 09:40:49;;;;;;;2.50;2.30;;;;;;;-145.45;100.00;62759.84;5326074;27;20027;-84
2022/05/24 09:43:33;;;;;;;4.00;2.28;;;;;;;-145.45;100.00;62759.84;5326075;27;20043;-85
2022/05/24 09:46:12;;;;;;;4.75;2.72;;;;;;;-145.45;100.00;62759.84;5304440;28;20081;-84
2022/05/24 09:48:57;;;;;;;5.30;2.47;;;;;;;-145.45;100.00;62759.84;5314185;27;20021;-85
2022/05/24 09:51:40;;;;;;;4.47;2.15;;;;;;;-145.45;100.00;62759.84;5312389;27;20060;-85
2022/05/24 09:54:18;;;;;;;5.50;3.15;;;;;;;-145.45;100.00;62759.84;5303980;28;20135;-86
2022/05/24 09:57:04;;;;;;;3.33;2.88;;;;;;;-145.45;100.00;62759.84;5304739;28;20469;-82
2022/05/24 09:59:56;;;;;;;2.83;2.22;;;;;;;-145.45;100.00;62759.84;5317515;28;20024;-86
2022/05/24 10:02:30;;;;;;;2.17;2.00;;;;;;;-145.45;100.00;62759.84;5324876;27;20028;-83
2022/05/24 10:05:03;;;;;;;6.10;2.30;;;;;;;-145.45;100.00;62759.84;5323399;28;20047;-85
2022/05/24 10:07:35;;;;;;;6.43;3.63;;;;;;;-145.45;100.00;62759.84;5336644;28;20032;-85
2022/05/24 10:10:14;;;;;;;2.72;2.30;;;;;;;-145.45;100.00;62759.84;5314643;27;20109;-85
2022/05/24 10:13:13;;;;;;;3.33;2.78;;;;;;;-145.45;100.00;62759.84;5297483;28;20366;-84
2022/05/24 10:15:47;;;;;;;2.60;2.30;;;;;;;-145.45;100.00;62759.84;5308081;28;20031;-84
2022/05/24 10:18:45;;;;;;;4.40;3.00;;;;;;;-145.45;100.00;62759.84;5325779;28;20043;-85
2022/05/24 10:21:55;;;;;;;4.75;2.00;;;;;;;-145.45;100.00;62759.84;5300553;28;20024;-84
2022/05/24 10:24:45;;;;;;;6.18;3.03;;;;;;;-145.45;100.00;62759.84;5241523;28;20150;-84
2022/05/24 10:27:38;;;;;;;5.28;4.07;;;;;;;-145.45;100.00;62759.84;5324035;28;20032;-84
2022/05/24 10:30:19;;;;;;;4.68;2.65;;;;;;;-145.45;100.00;62759.84;5302906;28;20473;-84
2022/05/24 10:40:08;;;;;;;2.70;2.50;;;;;;;-145.45;100.00;62759.84;5238172;28;20753;-84
2022/05/24 10:42:48;;;;;;;3.03;2.72;;;;;;;-145.45;100.00;62759.84;5315399;28;20012;-84
2022/05/24 10:45:49;;;;;;;3.72;3.20;;;;;;;-145.45;100.00;62759.84;5323695;28;26100;-84
2022/05/24 10:48:48;;;;;;;5.55;3.40;;;;;;;-145.45;100.00;62759.84;5307164;28;20036;-84
2022/05/24 10:51:47;;;;;;;4.13;3.80;;;;;;;-145.45;100.00;62759.84;5323458;28;20024;-84
2022/05/24 10:54:40;;;;;;;5.75;3.70;;;;;;;-145.45;100.00;62759.84;5288490;28;20033;-84
2022/05/24 10:57:44;;;;;;;2.90;2.63;;;;;;;-145.45;100.00;62759.84;5311720;28;20048;-83
2022/05/24 11:00:18;;;;;;;5.25;2.38;;;;;;;-145.45;100.00;62759.84;5285220;28;20171;-84
2022/05/24 11:03:02;;;;;;;3.15;2.42;;;;;;;-145.45;100.00;62759.84;5321412;28;20416;-84
2022/05/24 11:05:46;;;;;;;2.50;2.30;;;;;;;-145.45;100.00;62759.84;5312049;28;20031;-84
2022/05/24 11:08:35;;;;;;;5.28;2.30;;;;;;;-145.45;100.00;62759.84;5322468;28;20361;-85
2022/05/24 11:11:28;;;;;;;4.75;2.10;;;;;;;-145.45;100.00;62759.84;5317139;28;20051;-85
2022/05/24 11:14:23;;;;;;;4.80;2.33;;;;;;;-145.45;100.00;62759.84;5290659;28;20040;-85
2022/05/24 11:16:58;;;;;;;3.35;2.78;;;;;;;-145.45;100.00;62759.84;5294640;28;20381;-85
2022/05/24 11:19:35;;;;;;;6.68;2.97;;;;;;;-145.45;100.00;62759.84;5288817;28;20039;-85
2022/05/24 11:22:26;;;;;;;3.30;3.03;;;;;;;-145.45;100.00;62759.84;5284018;28;20032;-84
2022/05/24 11:25:25;;;;;;;3.58;3.28;;;;;;;-145.45;100.00;62759.84;5296327;28;20038;-84
2022/05/24 11:27:56;;;;;;;2.95;2.65;;;;;;;-145.45;100.00;62759.84;5301601;28;20074;-85
2022/05/24 11:30:28;;;;;;;4.37;3.27;;;;;;;-145.45;100.00;62759.84;5315385;28;20028;-85
2022/05/24 11:33:02;;;;;;;2.77;2.63;;;;;;;-145.45;100.00;62759.84;5314542;28;20368;-83
2022/05/24 11:35:46;;;;;;;5.18;2.90;;;;;;;-145.45;100.00;62759.84;5320377;28;20467;-84
2022/05/24 11:38:23;;;;;;;5.57;2.40;;;;;;;-145.45;100.00;62759.84;5291892;28;20515;-84
2022/05/24 11:40:54;;;;;;;2.85;2.08;;;;;;;-145.45;100.00;62759.84;5298635;28;35752;-85
2022/05/24 11:43:34;;;;;;;4.43;1.90;;;;;;;-145.45;100.00;62759.84;5323503;28;20039;-84
2022/05/24 11:46:33;;;;;;;6.15;2.45;;;;;;;-145.45;100.00;62759.84;5320785;28;20055;-85
2022/05/24 11:49:18;;;;;;;4.35;1.80;;;;;;;-145.45;100.00;62759.84;5301262;28;20066;-85
2022/05/24 11:52:05;;;;;;;2.63;2.00;;;;;;;-145.45;100.00;62759.84;5297310;28;20025;-84
2022/05/24 11:54:51;;;;;;;4.25;1.80;;;;;;;-145.45;100.00;62759.84;5319635;28;20465;-84
2022/05/24 11:57:37;;;;;;;6.82;2.13;;;;;;;-145.45;100.00;62759.84;5328607;28;20054;-83
2022/05/24 12:00:28;;;;;;;;;;;;;;;-145.45;100.00;62759.84;5317943;27;20542;-85
2022/05/24 12:09:50;;;;;;;6.10;2.83;;;;;;;-145.45;100.00;62759.84;5317925;28;20404;-83
2022/05/24 12:12:31;;;;;;;9.05;3.75;;;;;;;-145.45;100.00;62759.84;5210733;28;20050;-83
2022/05/24 12:15:15;;;;;;;3.45;1.90;;;;;;;-145.45;100.00;62759.84;5206662;28;20029;-82
2022/05/24 12:17:53;;;;;;;2.75;1.58;;;;;;;-145.45;100.00;62759.84;5284203;28;20493;-83
2022/05/24 12:20:33;;;;;;;3.28;1.63;;;;;;;-145.45;100.00;62759.84;5303973;28;20024;-83
2022/05/24 12:23:10;;;;;;;6.72;1.80;;;;;;;-145.45;100.00;62759.84;5294925;28;20112;-85
2022/05/24 12:26:20;;;;;;;2.70;2.10;;;;;;;-145.45;100.00;62759.84;5317302;28;20063;-83
2022/05/24 12:28:55;;;;;;;3.53;2.10;;;;;;;-145.45;100.00;62759.84;5304914;28;20028;-83